aviador You're here:

KSHN Decoded Metar

SHELTON in WA, USA
Report Time2018-05-21 15:53:00
UTC Time2018-05-21 16:47:06
Flight Rules mvfr MVFR
WindCalm
Visibility9999 m
Phenomena:N/A
Clouds:Overcast 020 Hf
Expected CloudBase > 1,600 ft AGL from Temp-Dew spread
Ceiling2,000 ft
Temp12°C (ISA -2)
Dew Point08°C (77% RH)
AAT11.6°C
QNH1018 hPa
Density Alt-49 ft
Elevation269 ft
Report Wrong Elevation
Raw Report
KSHN 211553Z AUTO 00000KT 10SM OVC020 12/08 A3007 RMK AO2 SLP185
T01170083=

Extra information for KSHN:More info

Metar Taf Metar & Taf Last 4 Metars F.Rules Stats Wind Profile Meteogram Temp Stats Airport Information Weather charts Add Link Nearby VenuesMetar ALERT Operation Metar Decoded Social comments

AIRNAV info for KSHN